Kelvedon Hatch, United Kingdom
Current Conditions -  °F | °C
As of 2:20 PM on Monday 20 Oct 2014 (Local Time) from EGSS Reporting Station
Scattered Clouds Scattered Clouds  
Wind Chill: 61°   Ceiling: Unl
Heat Index: 61°   Visibility: 6mi
Dew Point: 50°   Wind: 17mph
Humidity: 68%   Direction: 230°SW
Pressure: 29.97"   Gusts: NA
Location:  51.67°N, 0.27°E
Report Text: EGSS 201320Z 23015KT 9999 SCT027 16/10 Q1015
Loading
Personal Weather Stations






























Interactive Weather Map
Tropical Storm Tracking
New forecast layout! Learn more

10-Day Weather Forecast

Advertisements
Track Severe Weather on mobile